createdAt,value
2018-09-09T00:00:13.782Z,97924.33
2018-09-09T00:02:40.701Z,97920.39
2018-09-09T00:05:07.748Z,97922.53
2018-09-09T00:07:34.725Z,97926.47
2018-09-09T00:10:01.652Z,97931.20
2018-09-09T00:12:28.591Z,97930.89
2018-09-09T00:14:55.539Z,97928.58
2018-09-09T00:17:22.461Z,97929.89
2018-09-09T00:19:49.446Z,97930.89
2018-09-09T00:22:16.517Z,97930.41
2018-09-09T00:24:43.468Z,97929.89
2018-09-09T00:27:10.441Z,97930.68
2018-09-09T00:29:37.414Z,97934.34
2018-09-09T00:32:04.373Z,97936.45
2018-09-09T00:34:31.574Z,97938.84
2018-09-09T00:36:58.511Z,97934.34
2018-09-09T00:39:25.473Z,97928.06
2018-09-09T00:41:52.472Z,97929.89
2018-09-09T00:44:19.451Z,97929.38
2018-09-09T00:46:46.421Z,97926.23
2018-09-09T00:49:18.780Z,97929.38
2018-09-09T00:51:51.010Z,97923.33
2018-09-09T00:54:17.940Z,97915.72
2018-09-09T00:56:44.913Z,97925.44
2018-09-09T00:59:11.858Z,97922.29
2018-09-09T01:01:38.809Z,97916.52
2018-09-09T01:04:05.758Z,97921.49
2018-09-09T01:06:32.695Z,97919.15
2018-09-09T01:08:59.614Z,97922.57
2018-09-09T01:11:26.550Z,97925.44
2018-09-09T01:13:53.529Z,97922.81
2018-09-09T01:16:20.509Z,97922.81
2018-09-09T01:18:47.538Z,97920.46
2018-09-09T01:21:14.498Z,97925.71
2018-09-09T01:23:41.494Z,97920.46
2018-09-09T01:26:08.468Z,97924.92
2018-09-09T01:28:35.388Z,97922.29
2018-09-09T01:31:02.363Z,97920.98
2018-09-09T01:33:29.321Z,97927.02
2018-09-09T01:35:56.262Z,97913.90
2018-09-09T01:38:23.195Z,97913.90
2018-09-09T01:40:50.129Z,97914.69
2018-09-09T01:43:17.096Z,97907.34
2018-09-09T01:45:44.009Z,97919.15
2018-09-09T01:48:10.954Z,97922.29
2018-09-09T01:50:37.915Z,97929.38
2018-09-09T01:53:04.978Z,97928.34
2018-09-09T01:55:31.930Z,97939.64
2018-09-09T01:57:58.888Z,97932.27
2018-09-09T02:00:25.937Z,97930.45
2018-09-09T02:02:52.948Z,97936.21
2018-09-09T02:05:19.885Z,97930.97
2018-09-09T02:07:46.835Z,97928.62
2018-09-09T02:10:13.804Z,97925.20
2018-09-09T02:12:40.719Z,97925.99
2018-09-09T02:15:07.682Z,97919.95
2018-09-09T02:17:34.603Z,97919.95
2018-09-09T02:20:01.521Z,97919.95
2018-09-09T02:22:28.478Z,97918.63
2018-09-09T02:24:55.436Z,97915.49
2018-09-09T02:27:22.409Z,97912.86
2018-09-09T02:29:49.393Z,97915.49
2018-09-09T02:32:16.328Z,97919.95
2018-09-09T02:34:43.323Z,97922.33
2018-09-09T02:37:10.297Z,97910.75
2018-09-09T02:39:37.199Z,97915.20
2018-09-09T02:42:04.150Z,97912.58
2018-09-09T02:44:31.099Z,97911.27
2018-09-09T02:46:58.025Z,97920.73
2018-09-09T02:49:25.005Z,97919.43
2018-09-09T02:51:51.981Z,97922.33
2018-09-09T02:54:18.988Z,97922.05
2018-09-09T02:56:45.949Z,97924.68
2018-09-09T02:59:12.896Z,97920.22
2018-09-09T03:01:39.930Z,97928.62
2018-09-09T03:04:06.968Z,97929.41
2018-09-09T03:06:33.929Z,97930.21
2018-09-09T03:09:00.888Z,97931.24
2018-09-09T03:11:27.882Z,97933.35
2018-09-09T03:13:54.791Z,97928.10
2018-09-09T03:16:21.823Z,97924.68
2018-09-09T03:18:48.729Z,97923.88
2018-09-09T03:21:15.723Z,97925.99
2018-09-09T03:23:44.738Z,97931.80
2018-09-09T03:26:11.694Z,97933.87
2018-09-09T03:28:38.716Z,97931.01
2018-09-09T03:31:05.690Z,97931.24
2018-09-09T03:33:32.645Z,97927.30
2018-09-09T03:35:59.612Z,97925.99
2018-09-09T03:38:26.562Z,97918.11
2018-09-09T03:40:53.504Z,97925.48
2018-09-09T03:43:20.468Z,97928.89
2018-09-09T03:45:47.537Z,97926.78
2018-09-09T03:48:14.513Z,97932.04
2018-09-09T03:50:41.491Z,97939.68
2018-09-09T03:53:08.493Z,97944.13
2018-09-09T03:55:35.479Z,97944.41
2018-09-09T03:58:02.886Z,97940.95
2018-09-09T04:00:29.850Z,97941.47
2018-09-09T04:02:56.794Z,97937.25
2018-09-09T04:05:23.701Z,97937.77
2018-09-09T04:07:50.755Z,97946.95
2018-09-09T04:10:17.712Z,97946.95
2018-09-09T04:12:44.653Z,97953.80
2018-09-09T04:15:11.576Z,97953.00
2018-09-09T04:17:38.558Z,97954.83
2018-09-09T04:20:05.515Z,97947.75
2018-09-09T04:22:32.471Z,97954.88
2018-09-09T04:24:59.368Z,97957.50
2018-09-09T04:27:26.342Z,97955.39
2018-09-09T04:29:53.302Z,97954.36
2018-09-09T04:32:20.229Z,97952.77
2018-09-09T04:34:47.173Z,97956.47
2018-09-09T04:37:14.118Z,97957.50
2018-09-09T04:39:41.094Z,97968.00
2018-09-09T04:42:08.015Z,97963.55
2018-09-09T04:44:34.951Z,97968.52
2018-09-09T04:47:01.884Z,97968.52
2018-09-09T04:49:28.890Z,97970.86
2018-09-09T04:51:55.935Z,97975.88
2018-09-09T04:54:22.925Z,97969.31
2018-09-09T04:56:49.890Z,97971.94
2018-09-09T04:59:16.846Z,97979.81
2018-09-09T05:01:43.828Z,97973.25
2018-09-09T05:04:10.773Z,97976.95
2018-09-09T05:06:37.752Z,97973.25
2018-09-09T05:09:04.819Z,97975.88
2018-09-09T05:11:31.872Z,97968.52
2018-09-09T05:13:58.841Z,97969.55
2018-09-09T05:16:25.913Z,97969.55
2018-09-09T05:18:52.881Z,97964.30
2018-09-09T05:21:19.871Z,97967.95
2018-09-09T05:23:46.794Z,97961.39
2018-09-09T05:26:13.761Z,97964.81
2018-09-09T05:28:40.725Z,97964.53
2018-09-09T05:31:07.647Z,97959.28
2018-09-09T05:33:34.573Z,97958.77
2018-09-09T05:36:01.542Z,97964.02
2018-09-09T05:38:28.559Z,97963.22
2018-09-09T05:40:55.773Z,97962.19
2018-09-09T05:43:22.684Z,97960.08
2018-09-09T05:45:49.569Z,97963.50
2018-09-09T05:48:16.588Z,97959.56
2018-09-09T05:50:43.797Z,97962.70
2018-09-09T05:53:10.726Z,97962.19
2018-09-09T05:55:37.894Z,97964.81
2018-09-09T05:58:04.862Z,97972.69
2018-09-09T06:00:31.838Z,97970.06
2018-09-09T06:02:58.829Z,97971.38
2018-09-09T06:05:25.767Z,97983.19
2018-09-09T06:07:52.769Z,97988.95
2018-09-09T06:10:19.925Z,97988.95
2018-09-09T06:12:46.916Z,97988.45
2018-09-09T06:15:13.885Z,97990.55
2018-09-09T06:17:40.824Z,97995.80
2018-09-09T06:20:07.810Z,97992.89
2018-09-09T06:22:34.766Z,97995.80
2018-09-09T06:25:01.712Z,97998.43
2018-09-09T06:27:28.731Z,97994.21
2018-09-09T06:29:55.642Z,98000.77
2018-09-09T06:32:22.607Z,98001.57
2018-09-09T06:34:49.546Z,98007.91
2018-09-09T06:37:16.530Z,98006.82
2018-09-09T06:39:43.565Z,98012.08
2018-09-09T06:42:10.525Z,98012.87
2018-09-09T06:44:37.475Z,98010.76
2018-09-09T06:47:04.449Z,98020.75
2018-09-09T06:49:31.352Z,98024.69
2018-09-09T06:51:58.297Z,98034.91
2018-09-09T06:54:25.255Z,98033.87
2018-09-09T06:56:52.175Z,98023.09
2018-09-09T06:59:19.102Z,98021.78
2018-09-09T07:01:46.013Z,98023.89
2018-09-09T07:04:13.001Z,98023.09
2018-09-09T07:06:39.992Z,98019.95
2018-09-09T07:09:07.351Z,98027.83
2018-09-09T07:11:34.898Z,98028.03
2018-09-09T07:14:01.918Z,98020.98
2018-09-09T07:16:28.915Z,98014.42
2018-09-09T07:18:55.945Z,98021.78
2018-09-09T07:21:23.358Z,98027.03
2018-09-09T07:23:50.447Z,98027.03
2018-09-09T07:26:17.548Z,98033.59
2018-09-09T07:28:44.617Z,98027.83
2018-09-09T07:31:11.744Z,98024.41
2018-09-09T07:33:38.824Z,98032.56
2018-09-09T07:36:06.379Z,98024.17
2018-09-09T07:38:33.818Z,98020.47
2018-09-09T07:41:00.844Z,98016.30
2018-09-09T07:43:27.946Z,98012.08
2018-09-09T07:45:54.875Z,98027.83
2018-09-09T07:48:21.781Z,98033.08
2018-09-09T07:50:48.735Z,98026.00
2018-09-09T07:53:15.747Z,98030.66
2018-09-09T07:55:43.758Z,98034.55
2018-09-09T07:58:10.642Z,98035.27
2018-09-09T08:00:37.569Z,98036.58
2018-09-09T08:03:04.479Z,98034.98
2018-09-09T08:05:31.394Z,98034.19
2018-09-09T08:07:58.316Z,98040.75
2018-09-09T08:10:25.251Z,98046.80
2018-09-09T08:12:52.472Z,98048.63
2018-09-09T08:15:19.366Z,98041.27
2018-09-09T08:17:46.265Z,98038.12
2018-09-09T08:20:13.234Z,98043.38
2018-09-09T08:22:40.160Z,98038.92
2018-09-09T08:25:07.062Z,98038.92
2018-09-09T08:27:34.543Z,98034.98
2018-09-09T08:30:01.434Z,98043.66
2018-09-09T08:32:28.345Z,98034.98
2018-09-09T08:34:55.956Z,98035.78
2018-09-09T08:37:22.877Z,98038.92
2018-09-09T08:39:49.802Z,98044.17
2018-09-09T08:42:16.719Z,98048.39
2018-09-09T08:44:43.610Z,98048.39
2018-09-09T08:47:10.516Z,98051.53
2018-09-09T08:49:37.401Z,98042.06
2018-09-09T08:52:04.558Z,98045.20
2018-09-09T08:54:31.348Z,98045.48
2018-09-09T08:56:58.299Z,98044.45
2018-09-09T08:59:25.238Z,98037.09
2018-09-09T09:01:52.274Z,98028.22
2018-09-09T09:04:19.185Z,98022.45
2018-09-09T09:06:46.194Z,98021.66
2018-09-09T09:09:13.085Z,98033.47
2018-09-09T09:11:40.109Z,98031.84
2018-09-09T09:14:07.012Z,98034.78
2018-09-09T09:16:33.938Z,98033.16
2018-09-09T09:19:00.854Z,98035.58
2018-09-09T09:21:27.774Z,98033.16
2018-09-09T09:23:54.701Z,98029.22
2018-09-09T09:26:21.606Z,98030.02
2018-09-09T09:28:48.519Z,98021.34
2018-09-09T09:31:15.428Z,98015.58
2018-09-09T09:33:42.330Z,98011.35
2018-09-09T09:36:09.241Z,98012.67
2018-09-09T09:38:36.163Z,98014.77
2018-09-09T09:41:03.065Z,98011.35
2018-09-09T09:43:30.005Z,98012.38
2018-09-09T09:45:56.938Z,98011.87
2018-09-09T09:48:23.845Z,98008.73
2018-09-09T09:50:50.762Z,98007.93
2018-09-09T09:53:17.743Z,98016.61
2018-09-09T09:55:44.618Z,98017.91
2018-09-09T09:58:11.529Z,98015.81
2018-09-09T10:00:43.723Z,98017.12
2018-09-09T10:03:10.647Z,98018.44
2018-09-09T10:05:37.572Z,98015.01
2018-09-09T10:08:04.809Z,98014.49
2018-09-09T10:10:31.701Z,98007.65
2018-09-09T10:12:58.715Z,98017.12
2018-09-09T10:15:25.639Z,98011.87
2018-09-09T10:17:52.533Z,98014.49
2018-09-09T10:20:19.434Z,98011.87
2018-09-09T10:22:46.313Z,98007.93
2018-09-09T10:25:13.266Z,98012.16
2018-09-09T10:27:40.234Z,98010.32
2018-09-09T10:30:07.185Z,98011.16
2018-09-09T10:32:34.032Z,98005.90
2018-09-09T10:35:01.962Z,98001.13
2018-09-09T10:37:29.040Z,98003.04
2018-09-09T10:39:56.034Z,98007.78
2018-09-09T10:42:23.341Z,98005.95
2018-09-09T10:44:50.232Z,98003.32
2018-09-09T10:47:17.129Z,98008.06
2018-09-09T10:49:44.022Z,98000.47
2018-09-09T10:52:10.921Z,98000.47
2018-09-09T10:54:37.827Z,97996.52
2018-09-09T10:57:04.748Z,98003.40
2018-09-09T10:59:31.681Z,97993.41
2018-09-09T11:01:58.577Z,97996.32
2018-09-09T11:04:25.479Z,97998.95
2018-09-09T11:06:52.397Z,97991.07
2018-09-09T11:09:19.297Z,97997.91
2018-09-09T11:11:46.181Z,98001.34
2018-09-09T11:14:13.065Z,97998.71
2018-09-09T11:16:40.030Z,97995.34
2018-09-09T11:19:07.386Z,97995.62
2018-09-09T11:21:34.308Z,97999.84
2018-09-09T11:24:01.349Z,97978.54
2018-09-09T11:26:28.270Z,97992.75
2018-09-09T11:28:55.166Z,97988.30
2018-09-09T11:31:22.091Z,97991.28
2018-09-09T11:33:48.994Z,97995.97
2018-09-09T11:36:16.404Z,97990.92
2018-09-09T11:38:43.393Z,97997.00
2018-09-09T11:41:10.309Z,98001.43
2018-09-09T11:43:37.290Z,97995.18
2018-09-09T11:46:04.186Z,97992.55
2018-09-09T11:48:31.232Z,97987.50
2018-09-09T11:50:58.179Z,97981.73
2018-09-09T11:53:25.180Z,97983.80
2018-09-09T11:55:52.175Z,97971.19
2018-09-09T11:58:19.113Z,97979.86
2018-09-09T12:00:46.093Z,97976.72
2018-09-09T12:03:13.137Z,97978.55
2018-09-09T12:05:40.137Z,97980.66
2018-09-09T12:08:07.110Z,97975.92
2018-09-09T12:10:34.069Z,97968.56
2018-09-09T12:13:01.071Z,97969.36
2018-09-09T12:15:28.034Z,97969.36
2018-09-09T12:17:55.065Z,97967.25
2018-09-09T12:20:22.026Z,97967.25
2018-09-09T12:22:49.048Z,97967.53
2018-09-09T12:25:16.004Z,97970.16
2018-09-09T12:27:42.997Z,97972.27
2018-09-09T12:30:09.906Z,97969.44
2018-09-09T12:32:36.918Z,97972.86
2018-09-09T12:35:03.797Z,97968.13
2018-09-09T12:37:30.701Z,97965.19
2018-09-09T12:39:57.590Z,97968.92
2018-09-09T12:42:24.499Z,97961.84
2018-09-09T12:44:56.691Z,97970.23
2018-09-09T12:47:28.800Z,97970.80
2018-09-09T12:49:55.680Z,97979.98
2018-09-09T12:52:22.657Z,97983.13
2018-09-09T12:54:49.592Z,97976.56
2018-09-09T12:57:16.472Z,97972.11
2018-09-09T12:59:43.519Z,97976.13
2018-09-09T13:02:10.409Z,97970.56
2018-09-09T13:04:37.310Z,97968.45
2018-09-09T13:07:04.225Z,97963.43
2018-09-09T13:09:31.121Z,97971.83
2018-09-09T13:11:58.016Z,97976.72
2018-09-09T13:14:24.950Z,97965.89
2018-09-09T13:16:51.846Z,97961.16
2018-09-09T13:19:18.862Z,97965.61
2018-09-09T13:21:46.009Z,97966.92
2018-09-09T13:24:12.962Z,97961.67
2018-09-09T13:26:39.873Z,97952.48
2018-09-09T13:29:06.873Z,97942.78
2018-09-09T13:31:33.818Z,97939.88
2018-09-09T13:34:00.709Z,97904.97
2018-09-09T13:36:27.962Z,97944.41
2018-09-09T13:38:54.912Z,97948.35
2018-09-09T13:41:21.796Z,97941.55
2018-09-09T13:43:48.706Z,97938.41
2018-09-09T13:46:15.589Z,97936.30
2018-09-09T13:48:42.486Z,97938.92
2018-09-09T13:51:09.405Z,97937.92
2018-09-09T13:53:36.448Z,97941.03
2018-09-09T13:56:03.439Z,97939.23
2018-09-09T13:58:30.334Z,97941.03
2018-09-09T14:00:57.233Z,97940.83
2018-09-09T14:03:24.139Z,97938.20
2018-09-09T14:05:51.158Z,97941.03
2018-09-09T14:08:18.156Z,97940.55
2018-09-09T14:10:45.136Z,97935.58
2018-09-09T14:13:12.160Z,97929.02
2018-09-09T14:15:40.187Z,97936.37
2018-09-09T14:18:07.178Z,97933.23
2018-09-09T14:20:35.672Z,97932.72
2018-09-09T14:23:02.684Z,97925.63
2018-09-09T14:25:29.699Z,97930.65
2018-09-09T14:27:56.715Z,97929.06
2018-09-09T14:30:23.657Z,97928.02
2018-09-09T14:32:50.713Z,97933.00
2018-09-09T14:35:17.708Z,97927.75
2018-09-09T14:37:44.692Z,97927.51
2018-09-09T14:40:11.853Z,97928.54
2018-09-09T14:42:38.966Z,97930.13
2018-09-09T14:45:06.030Z,97926.20
2018-09-09T14:47:32.999Z,97926.47
2018-09-09T14:50:00.101Z,97925.68
2018-09-09T14:52:27.394Z,97928.30
2018-09-09T14:54:54.378Z,97928.59
2018-09-09T14:57:21.486Z,97924.92
2018-09-09T14:59:48.416Z,97931.25
2018-09-09T15:02:15.317Z,97928.59
2018-09-09T15:04:42.225Z,97936.18
2018-09-09T15:07:09.124Z,97934.31
2018-09-09T15:09:36.028Z,97934.03
2018-09-09T15:12:02.929Z,97929.34
2018-09-09T15:14:29.888Z,97925.63
2018-09-09T15:16:56.797Z,97928.78
2018-09-09T15:19:23.694Z,97921.42
2018-09-09T15:21:50.619Z,97920.91
2018-09-09T15:24:17.521Z,97932.44
2018-09-09T15:26:44.420Z,97926.16
2018-09-09T15:29:11.339Z,97927.98
2018-09-09T15:31:38.238Z,97923.53
2018-09-09T15:34:05.131Z,97920.91
2018-09-09T15:36:32.013Z,97916.16
2018-09-09T15:38:58.933Z,97921.70
2018-09-09T15:41:25.830Z,97920.91
2018-09-09T15:43:52.729Z,97918.27
2018-09-09T15:46:19.627Z,97922.22
2018-09-09T15:48:46.642Z,97921.70
2018-09-09T15:51:13.547Z,97918.13
2018-09-09T15:53:40.457Z,97917.44
2018-09-09T15:56:07.354Z,97922.69
2018-09-09T15:58:34.244Z,97916.17
2018-09-09T16:01:01.163Z,97915.81
2018-09-09T16:03:28.089Z,97912.87
2018-09-09T16:05:54.996Z,97920.58
2018-09-09T16:10:55.153Z,97917.37
2018-09-09T16:13:22.350Z,97924.17
2018-09-09T16:15:49.253Z,97923.89
2018-09-09T16:18:16.162Z,97918.88
2018-09-09T16:20:43.078Z,97924.41
2018-09-09T16:23:10.023Z,97920.98
2018-09-09T16:25:36.934Z,97924.12
2018-09-09T16:28:03.818Z,97926.75
2018-09-09T16:30:30.735Z,97922.02
2018-09-09T16:32:57.634Z,97925.44
2018-09-09T16:35:24.555Z,97922.02
2018-09-09T16:37:51.442Z,97930.93
2018-09-09T16:40:18.336Z,97928.30
2018-09-09T16:42:45.252Z,97933.31
2018-09-09T16:45:12.252Z,97934.87
2018-09-09T16:50:12.343Z,97933.60
2018-09-09T16:52:39.282Z,97934.12
2018-09-09T16:55:06.197Z,97933.31
2018-09-09T16:57:33.139Z,97932.52
2018-09-09T17:00:00.049Z,97933.04
2018-09-09T17:02:26.961Z,97932.01
2018-09-09T17:04:53.902Z,97926.47
2018-09-09T17:07:20.920Z,97927.31
2018-09-09T17:09:47.861Z,97925.25
2018-09-09T17:12:14.845Z,97927.36
2018-09-09T17:14:41.834Z,97932.89
2018-09-09T17:17:08.791Z,97933.13
2018-09-09T17:19:35.800Z,97934.44
2018-09-09T17:22:02.723Z,97933.41
2018-09-09T17:24:29.697Z,97938.66
2018-09-09T17:26:56.656Z,97937.34
2018-09-09T17:29:23.682Z,97950.20
2018-09-09T17:31:50.668Z,97948.60
2018-09-09T17:34:17.692Z,97951.75
2018-09-09T17:36:44.692Z,97947.52
2018-09-09T17:39:12.055Z,97949.88
2018-09-09T17:41:39.398Z,97952.78
2018-09-09T17:44:06.624Z,97946.73
2018-09-09T17:46:34.736Z,97956.72
2018-09-09T17:49:02.181Z,97955.41
2018-09-09T17:51:29.267Z,97955.69
2018-09-09T17:53:56.426Z,97950.67
2018-09-09T17:56:23.416Z,97951.70
2018-09-09T17:58:50.625Z,97950.39
2018-09-09T18:01:17.584Z,97956.95
2018-09-09T18:03:44.502Z,97951.75
2018-09-09T18:06:11.420Z,97959.16
2018-09-09T18:08:38.396Z,97958.08
2018-09-09T18:11:05.378Z,97965.72
2018-09-09T18:13:32.322Z,97970.52
2018-09-09T18:15:59.422Z,97970.25
2018-09-09T18:18:26.566Z,97976.30
2018-09-09T18:20:53.767Z,97975.78
2018-09-09T18:23:20.710Z,97972.36
2018-09-09T18:25:47.649Z,97971.56
2018-09-09T18:28:14.607Z,97977.38
2018-09-09T18:30:41.649Z,97970.52
2018-09-09T18:33:08.674Z,97984.97
2018-09-09T18:35:35.667Z,97987.31
2018-09-09T18:38:02.593Z,97986.01
2018-09-09T18:40:29.595Z,97989.95
2018-09-09T18:42:56.552Z,97988.35
2018-09-09T18:45:23.809Z,97989.35
2018-09-09T18:47:50.797Z,97988.28
2018-09-09T18:50:17.776Z,97988.28
2018-09-09T18:52:44.842Z,97988.00
2018-09-09T18:55:11.805Z,97994.84
2018-09-09T18:57:38.780Z,97990.11
2018-09-09T19:00:05.863Z,97992.73
2018-09-09T19:02:32.856Z,97991.14
2018-09-09T19:04:59.851Z,97991.94
2018-09-09T19:07:26.931Z,97997.19
2018-09-09T19:09:54.094Z,97993.25
2018-09-09T19:12:21.138Z,97999.53
2018-09-09T19:14:48.802Z,97997.19
2018-09-09T19:17:15.894Z,97990.63
2018-09-09T19:19:42.887Z,97991.94
2018-09-09T19:22:09.933Z,97989.83
2018-09-09T19:24:36.956Z,97997.19
2018-09-09T19:27:03.914Z,97989.55
2018-09-09T19:29:30.857Z,97996.67
2018-09-09T19:31:57.862Z,97995.87
2018-09-09T19:34:24.765Z,97993.77
2018-09-09T19:36:51.696Z,97986.69
2018-09-09T19:39:18.646Z,97992.45
2018-09-09T19:41:45.560Z,97992.45
2018-09-09T19:44:12.505Z,97992.45
2018-09-09T19:46:39.415Z,97995.87
2018-09-09T19:49:06.682Z,97996.39
2018-09-09T19:51:33.673Z,97996.67
2018-09-09T19:54:00.638Z,97997.47
2018-09-09T19:56:27.544Z,98002.48
2018-09-09T19:58:54.593Z,97994.40
2018-09-09T20:01:21.574Z,97996.23
2018-09-09T20:03:48.545Z,97995.76
2018-09-09T20:06:15.534Z,97998.66
2018-09-09T20:08:43.590Z,97994.21
2018-09-09T20:11:10.574Z,97992.09
2018-09-09T20:13:37.566Z,98002.33
2018-09-09T20:16:04.528Z,98003.13
2018-09-09T20:18:31.503Z,98006.55
2018-09-09T20:20:58.743Z,98001.30
2018-09-09T20:23:25.799Z,98001.30
2018-09-09T20:25:52.784Z,98004.16
2018-09-09T20:28:19.814Z,97999.42
2018-09-09T20:30:46.762Z,98006.78
2018-09-09T20:33:13.845Z,98006.50
2018-09-09T20:35:40.852Z,98015.18
2018-09-09T20:38:07.946Z,98013.86
2018-09-09T20:40:34.988Z,98003.87
2018-09-09T20:43:02.142Z,98005.98
2018-09-09T20:45:29.321Z,98009.13
2018-09-09T20:47:56.300Z,98009.13
2018-09-09T20:50:23.349Z,98014.38
2018-09-09T20:52:50.486Z,98020.43
2018-09-09T20:55:17.390Z,98020.95
2018-09-09T20:57:44.510Z,98025.16
2018-09-09T21:00:11.576Z,98025.16
2018-09-09T21:02:38.447Z,98023.34
2018-09-09T21:05:05.357Z,98032.53
2018-09-09T21:07:32.260Z,98028.31
2018-09-09T21:09:59.193Z,98025.69
2018-09-09T21:12:26.254Z,98024.89
2018-09-09T21:14:53.250Z,98030.94
2018-09-09T21:17:20.169Z,98033.56
2018-09-09T21:19:47.096Z,98036.70
2018-09-09T21:22:14.018Z,98035.16
2018-09-09T21:24:41.072Z,98036.19
2018-09-09T21:27:08.034Z,98037.78
2018-09-09T21:29:36.069Z,98040.41
2018-09-09T21:32:03.069Z,98038.81
2018-09-09T21:34:30.062Z,98036.19
2018-09-09T21:36:56.985Z,98036.98
2018-09-09T21:39:23.962Z,98038.02
2018-09-09T21:41:50.909Z,98031.22
2018-09-09T21:44:17.829Z,98024.89
2018-09-09T21:46:44.748Z,98027.00
2018-09-09T21:49:11.730Z,98023.05
2018-09-09T21:51:38.701Z,98022.26
2018-09-09T21:54:06.000Z,98025.69
2018-09-09T21:56:33.047Z,98019.12
2018-09-09T21:58:59.974Z,98019.63
2018-09-09T22:01:32.232Z,98020.43
2018-09-09T22:03:59.687Z,98017.52
2018-09-09T22:06:27.246Z,98022.54
2018-09-09T22:08:54.637Z,98023.86
2018-09-09T22:11:21.865Z,98024.38
2018-09-09T22:13:49.274Z,98024.89
2018-09-09T22:16:16.288Z,98030.94
2018-09-09T22:18:43.238Z,98034.87
2018-09-09T22:21:10.172Z,98029.11
2018-09-09T22:23:37.147Z,98030.14
2018-09-09T22:26:04.093Z,98032.25
2018-09-09T22:28:31.028Z,98027.80
2018-09-09T22:30:58.062Z,98032.25
2018-09-09T22:33:25.057Z,98028.83
2018-09-09T22:35:51.971Z,98026.20
2018-09-09T22:38:18.872Z,98033.05
2018-09-09T22:40:45.814Z,98033.84
2018-09-09T22:43:12.739Z,98036.98
2018-09-09T22:45:41.192Z,98036.98
2018-09-09T22:48:08.204Z,98042.23
2018-09-09T22:50:35.101Z,98040.41
2018-09-09T22:53:02.050Z,98043.03
2018-09-09T22:55:29.008Z,98040.92
2018-09-09T22:57:55.952Z,98040.13
2018-09-09T23:00:22.865Z,98042.23
2018-09-09T23:02:49.828Z,98043.03
2018-09-09T23:05:16.765Z,98048.29
2018-09-09T23:07:43.707Z,98049.60
2018-09-09T23:10:10.661Z,98044.35
2018-09-09T23:12:37.621Z,98043.55
2018-09-09T23:15:04.634Z,98044.06
2018-09-09T23:17:31.615Z,98048.29
2018-09-09T23:19:58.553Z,98048.80
2018-09-09T23:22:25.538Z,98047.49
2018-09-09T23:24:52.534Z,98044.87
2018-09-09T23:27:19.486Z,98044.35
2018-09-09T23:29:46.482Z,98043.03
2018-09-09T23:32:13.458Z,98036.19
2018-09-09T23:34:40.426Z,98041.72
2018-09-09T23:37:07.418Z,98039.61
2018-09-09T23:39:34.393Z,98040.92
2018-09-09T23:42:01.360Z,98035.95
2018-09-09T23:44:28.333Z,98043.03
2018-09-09T23:46:55.289Z,98043.03
2018-09-09T23:49:22.216Z,98043.55
2018-09-09T23:51:49.163Z,98042.00
2018-09-09T23:54:16.112Z,98040.41
2018-09-09T23:56:43.049Z,98043.03
2018-09-09T23:59:09.990Z,98044.87
